sensor_id;sensor_type;location;lat;lon;timestamp;P1;durP1;ratioP1;P2;durP2;ratioP2
23730;SDS011;12046;44.702;10.622;2023-02-19T00:01:00;42.35;;;30.08;;
23730;SDS011;12046;44.702;10.622;2023-02-19T00:03:30;36.60;;;27.92;;
23730;SDS011;12046;44.702;10.622;2023-02-19T00:05:56;37.60;;;28.60;;
23730;SDS011;12046;44.702;10.622;2023-02-19T00:08:25;39.38;;;29.42;;
23730;SDS011;12046;44.702;10.622;2023-02-19T00:10:58;41.00;;;31.10;;
23730;SDS011;12046;44.702;10.622;2023-02-19T00:13:39;38.38;;;29.15;;
23730;SDS011;12046;44.702;10.622;2023-02-19T00:16:19;37.38;;;27.75;;
23730;SDS011;12046;44.702;10.622;2023-02-19T00:18:53;36.20;;;26.35;;
23730;SDS011;12046;44.702;10.622;2023-02-19T00:21:23;35.03;;;26.20;;
23730;SDS011;12046;44.702;10.622;2023-02-19T00:23:53;35.90;;;27.58;;
23730;SDS011;12046;44.702;10.622;2023-02-19T00:26:23;35.03;;;26.90;;
23730;SDS011;12046;44.702;10.622;2023-02-19T00:28:50;36.03;;;26.25;;
23730;SDS011;12046;44.702;10.622;2023-02-19T00:33:54;33.83;;;25.55;;
23730;SDS011;12046;44.702;10.622;2023-02-19T00:36:23;32.75;;;24.67;;
23730;SDS011;12046;44.702;10.622;2023-02-19T00:38:50;30.95;;;23.92;;
23730;SDS011;12046;44.702;10.622;2023-02-19T00:41:17;33.22;;;24.60;;
23730;SDS011;12046;44.702;10.622;2023-02-19T00:43:49;30.63;;;24.05;;
23730;SDS011;12046;44.702;10.622;2023-02-19T00:46:24;31.08;;;22.95;;
23730;SDS011;12046;44.702;10.622;2023-02-19T00:48:53;33.08;;;24.00;;
23730;SDS011;12046;44.702;10.622;2023-02-19T00:51:20;35.13;;;25.00;;
23730;SDS011;12046;44.702;10.622;2023-02-19T00:53:48;33.60;;;25.15;;
23730;SDS011;12046;44.702;10.622;2023-02-19T00:56:18;39.88;;;26.40;;
23730;SDS011;12046;44.702;10.622;2023-02-19T00:58:47;31.08;;;22.75;;
23730;SDS011;12046;44.702;10.622;2023-02-19T01:01:13;33.45;;;24.73;;
23730;SDS011;12046;44.702;10.622;2023-02-19T01:03:40;34.28;;;24.25;;
23730;SDS011;12046;44.702;10.622;2023-02-19T01:06:07;32.50;;;23.02;;
23730;SDS011;12046;44.702;10.622;2023-02-19T01:08:34;33.10;;;23.08;;
23730;SDS011;12046;44.702;10.622;2023-02-19T01:11:01;28.48;;;22.00;;
23730;SDS011;12046;44.702;10.622;2023-02-19T01:13:28;30.33;;;21.55;;
23730;SDS011;12046;44.702;10.622;2023-02-19T01:16:12;32.35;;;22.50;;
23730;SDS011;12046;44.702;10.622;2023-02-19T01:18:38;26.48;;;19.65;;
23730;SDS011;12046;44.702;10.622;2023-02-19T01:21:07;27.15;;;19.80;;
23730;SDS011;12046;44.702;10.622;2023-02-19T01:23:41;32.72;;;20.00;;
23730;SDS011;12046;44.702;10.622;2023-02-19T01:26:12;25.40;;;18.42;;
23730;SDS011;12046;44.702;10.622;2023-02-19T01:28:43;25.95;;;18.27;;
23730;SDS011;12046;44.702;10.622;2023-02-19T01:31:14;27.13;;;18.02;;
23730;SDS011;12046;44.702;10.622;2023-02-19T01:33:44;26.85;;;19.50;;
23730;SDS011;12046;44.702;10.622;2023-02-19T01:36:11;29.48;;;20.58;;
23730;SDS011;12046;44.702;10.622;2023-02-19T01:38:40;26.65;;;19.73;;
23730;SDS011;12046;44.702;10.622;2023-02-19T01:41:08;26.33;;;18.88;;
23730;SDS011;12046;44.702;10.622;2023-02-19T01:46:24;28.23;;;18.75;;
23730;SDS011;12046;44.702;10.622;2023-02-19T01:49:42;27.50;;;19.27;;
23730;SDS011;12046;44.702;10.622;2023-02-19T01:52:08;24.70;;;18.48;;
23730;SDS011;12046;44.702;10.622;2023-02-19T01:54:39;29.73;;;19.25;;
23730;SDS011;12046;44.702;10.622;2023-02-19T01:57:13;27.67;;;18.17;;
23730;SDS011;12046;44.702;10.622;2023-02-19T02:02:09;26.77;;;19.30;;
23730;SDS011;12046;44.702;10.622;2023-02-19T02:04:38;24.00;;;16.90;;
23730;SDS011;12046;44.702;10.622;2023-02-19T02:07:04;24.85;;;16.98;;
23730;SDS011;12046;44.702;10.622;2023-02-19T02:09:53;23.35;;;17.40;;
23730;SDS011;12046;44.702;10.622;2023-02-19T02:12:38;23.60;;;17.08;;
23730;SDS011;12046;44.702;10.622;2023-02-19T02:15:04;25.10;;;17.30;;
23730;SDS011;12046;44.702;10.622;2023-02-19T02:25:44;24.15;;;17.73;;
23730;SDS011;12046;44.702;10.622;2023-02-19T02:31:08;22.45;;;17.00;;
23730;SDS011;12046;44.702;10.622;2023-02-19T02:33:52;22.17;;;16.10;;
23730;SDS011;12046;44.702;10.622;2023-02-19T02:36:35;22.40;;;16.33;;
23730;SDS011;12046;44.702;10.622;2023-02-19T02:39:05;24.42;;;16.25;;
23730;SDS011;12046;44.702;10.622;2023-02-19T02:41:35;24.48;;;17.30;;
23730;SDS011;12046;44.702;10.622;2023-02-19T02:44:09;24.83;;;16.95;;
23730;SDS011;12046;44.702;10.622;2023-02-19T02:46:37;23.00;;;16.75;;
23730;SDS011;12046;44.702;10.622;2023-02-19T02:49:11;26.52;;;17.08;;
23730;SDS011;12046;44.702;10.622;2023-02-19T02:51:48;28.27;;;17.90;;
23730;SDS011;12046;44.702;10.622;2023-02-19T02:54:21;23.75;;;17.30;;
23730;SDS011;12046;44.702;10.622;2023-02-19T02:57:10;25.55;;;17.58;;
23730;SDS011;12046;44.702;10.622;2023-02-19T02:59:39;23.23;;;16.83;;
23730;SDS011;12046;44.702;10.622;2023-02-19T03:02:07;23.45;;;16.70;;
23730;SDS011;12046;44.702;10.622;2023-02-19T03:07:41;24.88;;;17.13;;
23730;SDS011;12046;44.702;10.622;2023-02-19T03:10:16;23.52;;;17.20;;
23730;SDS011;12046;44.702;10.622;2023-02-19T03:12:46;21.80;;;16.15;;
23730;SDS011;12046;44.702;10.622;2023-02-19T03:15:38;25.75;;;17.77;;
23730;SDS011;12046;44.702;10.622;2023-02-19T03:18:27;22.55;;;16.50;;
23730;SDS011;12046;44.702;10.622;2023-02-19T03:21:14;23.30;;;16.65;;
23730;SDS011;12046;44.702;10.622;2023-02-19T03:23:43;22.90;;;15.65;;
23730;SDS011;12046;44.702;10.622;2023-02-19T03:26:30;22.67;;;16.05;;
23730;SDS011;12046;44.702;10.622;2023-02-19T03:28:58;23.05;;;16.50;;
23730;SDS011;12046;44.702;10.622;2023-02-19T03:31:45;23.08;;;16.15;;
23730;SDS011;12046;44.702;10.622;2023-02-19T03:34:14;23.55;;;17.20;;
23730;SDS011;12046;44.702;10.622;2023-02-19T03:36:45;23.50;;;17.13;;
23730;SDS011;12046;44.702;10.622;2023-02-19T03:39:16;23.58;;;16.77;;
23730;SDS011;12046;44.702;10.622;2023-02-19T03:52:35;21.80;;;16.23;;
23730;SDS011;12046;44.702;10.622;2023-02-19T03:55:07;25.77;;;18.17;;
23730;SDS011;12046;44.702;10.622;2023-02-19T03:57:44;24.33;;;17.27;;
23730;SDS011;12046;44.702;10.622;2023-02-19T04:05:47;23.55;;;17.45;;
23730;SDS011;12046;44.702;10.622;2023-02-19T04:08:21;22.85;;;15.93;;
23730;SDS011;12046;44.702;10.622;2023-02-19T04:10:51;23.40;;;17.00;;
23730;SDS011;12046;44.702;10.622;2023-02-19T04:13:19;24.83;;;16.77;;
23730;SDS011;12046;44.702;10.622;2023-02-19T04:15:52;25.90;;;17.15;;
23730;SDS011;12046;44.702;10.622;2023-02-19T04:18:28;24.83;;;17.05;;
23730;SDS011;12046;44.702;10.622;2023-02-19T04:20:57;23.25;;;17.08;;
23730;SDS011;12046;44.702;10.622;2023-02-19T04:23:25;25.27;;;17.60;;
23730;SDS011;12046;44.702;10.622;2023-02-19T04:25:55;24.30;;;16.67;;
23730;SDS011;12046;44.702;10.622;2023-02-19T04:28:23;25.80;;;17.67;;
23730;SDS011;12046;44.702;10.622;2023-02-19T04:30:53;23.52;;;17.20;;
23730;SDS011;12046;44.702;10.622;2023-02-19T04:33:22;24.75;;;17.33;;
23730;SDS011;12046;44.702;10.622;2023-02-19T04:35:47;23.48;;;16.55;;
23730;SDS011;12046;44.702;10.622;2023-02-19T04:38:13;25.45;;;17.10;;
23730;SDS011;12046;44.702;10.622;2023-02-19T04:40:39;25.77;;;18.13;;
23730;SDS011;12046;44.702;10.622;2023-02-19T04:43:05;27.02;;;18.48;;
23730;SDS011;12046;44.702;10.622;2023-02-19T04:45:30;26.40;;;17.50;;
23730;SDS011;12046;44.702;10.622;2023-02-19T04:47:56;24.13;;;17.35;;
23730;SDS011;12046;44.702;10.622;2023-02-19T04:50:23;26.90;;;17.55;;
23730;SDS011;12046;44.702;10.622;2023-02-19T04:52:49;24.48;;;17.45;;
23730;SDS011;12046;44.702;10.622;2023-02-19T04:55:18;24.58;;;16.90;;
23730;SDS011;12046;44.702;10.622;2023-02-19T04:57:44;22.98;;;16.67;;
23730;SDS011;12046;44.702;10.622;2023-02-19T05:00:12;28.30;;;18.45;;
23730;SDS011;12046;44.702;10.622;2023-02-19T05:02:38;23.65;;;16.98;;
23730;SDS011;12046;44.702;10.622;2023-02-19T05:05:06;24.52;;;17.85;;
23730;SDS011;12046;44.702;10.622;2023-02-19T05:07:32;26.15;;;17.92;;
23730;SDS011;12046;44.702;10.622;2023-02-19T05:09:58;27.30;;;16.77;;
23730;SDS011;12046;44.702;10.622;2023-02-19T05:12:24;24.13;;;18.05;;
23730;SDS011;12046;44.702;10.622;2023-02-19T05:14:50;26.13;;;18.88;;
23730;SDS011;12046;44.702;10.622;2023-02-19T05:17:20;28.83;;;18.85;;
23730;SDS011;12046;44.702;10.622;2023-02-19T05:19:48;28.05;;;19.30;;
23730;SDS011;12046;44.702;10.622;2023-02-19T05:22:14;26.08;;;18.20;;
23730;SDS011;12046;44.702;10.622;2023-02-19T05:24:40;28.25;;;19.08;;
23730;SDS011;12046;44.702;10.622;2023-02-19T05:27:06;24.55;;;18.90;;
23730;SDS011;12046;44.702;10.622;2023-02-19T05:29:34;25.65;;;18.42;;
23730;SDS011;12046;44.702;10.622;2023-02-19T05:32:00;29.73;;;19.05;;
23730;SDS011;12046;44.702;10.622;2023-02-19T05:34:26;28.70;;;19.23;;
23730;SDS011;12046;44.702;10.622;2023-02-19T05:36:55;26.08;;;19.13;;
23730;SDS011;12046;44.702;10.622;2023-02-19T05:39:20;26.58;;;18.45;;
23730;SDS011;12046;44.702;10.622;2023-02-19T05:41:49;28.95;;;18.42;;
23730;SDS011;12046;44.702;10.622;2023-02-19T05:44:15;26.85;;;18.85;;
23730;SDS011;12046;44.702;10.622;2023-02-19T05:46:44;27.30;;;19.73;;
23730;SDS011;12046;44.702;10.622;2023-02-19T05:49:09;25.75;;;18.48;;
23730;SDS011;12046;44.702;10.622;2023-02-19T05:51:35;26.13;;;18.73;;
23730;SDS011;12046;44.702;10.622;2023-02-19T05:54:03;25.88;;;19.73;;
23730;SDS011;12046;44.702;10.622;2023-02-19T05:56:33;28.95;;;19.85;;
23730;SDS011;12046;44.702;10.622;2023-02-19T05:59:04;29.30;;;20.17;;
23730;SDS011;12046;44.702;10.622;2023-02-19T06:01:41;28.67;;;19.88;;
23730;SDS011;12046;44.702;10.622;2023-02-19T06:04:07;29.42;;;20.23;;
23730;SDS011;12046;44.702;10.622;2023-02-19T06:06:34;27.40;;;19.77;;
23730;SDS011;12046;44.702;10.622;2023-02-19T06:09:01;28.48;;;20.75;;
23730;SDS011;12046;44.702;10.622;2023-02-19T06:11:28;30.73;;;20.27;;
23730;SDS011;12046;44.702;10.622;2023-02-19T06:13:54;29.88;;;20.00;;
23730;SDS011;12046;44.702;10.622;2023-02-19T06:16:20;29.17;;;20.58;;
23730;SDS011;12046;44.702;10.622;2023-02-19T06:18:49;34.30;;;21.52;;
23730;SDS011;12046;44.702;10.622;2023-02-19T06:21:15;30.88;;;20.50;;
23730;SDS011;12046;44.702;10.622;2023-02-19T06:23:44;30.77;;;20.63;;
23730;SDS011;12046;44.702;10.622;2023-02-19T06:28:38;28.00;;;19.80;;
23730;SDS011;12046;44.702;10.622;2023-02-19T06:31:05;31.77;;;21.40;;
23730;SDS011;12046;44.702;10.622;2023-02-19T06:33:32;26.92;;;19.55;;
23730;SDS011;12046;44.702;10.622;2023-02-19T06:35:59;27.40;;;19.65;;
23730;SDS011;12046;44.702;10.622;2023-02-19T06:38:29;28.65;;;20.50;;
23730;SDS011;12046;44.702;10.622;2023-02-19T06:40:59;27.75;;;19.55;;
23730;SDS011;12046;44.702;10.622;2023-02-19T06:43:30;26.33;;;19.77;;
23730;SDS011;12046;44.702;10.622;2023-02-19T06:45:59;31.25;;;20.73;;
23730;SDS011;12046;44.702;10.622;2023-02-19T06:48:27;26.98;;;19.77;;
23730;SDS011;12046;44.702;10.622;2023-02-19T06:50:54;26.40;;;20.17;;
23730;SDS011;12046;44.702;10.622;2023-02-19T06:53:20;25.08;;;18.55;;
23730;SDS011;12046;44.702;10.622;2023-02-19T06:55:56;27.83;;;19.52;;
23730;SDS011;12046;44.702;10.622;2023-02-19T06:58:27;28.25;;;20.75;;
23730;SDS011;12046;44.702;10.622;2023-02-19T07:00:53;27.13;;;20.10;;
23730;SDS011;12046;44.702;10.622;2023-02-19T07:03:19;28.27;;;20.70;;
23730;SDS011;12046;44.702;10.622;2023-02-19T07:05:48;28.77;;;21.13;;
23730;SDS011;12046;44.702;10.622;2023-02-19T07:08:14;27.13;;;20.92;;
23730;SDS011;12046;44.702;10.622;2023-02-19T07:10:42;26.38;;;20.73;;
23730;SDS011;12046;44.702;10.622;2023-02-19T07:13:10;30.17;;;22.15;;
23730;SDS011;12046;44.702;10.622;2023-02-19T07:15:36;27.58;;;20.25;;
23730;SDS011;12046;44.702;10.622;2023-02-19T07:18:05;26.77;;;19.35;;
23730;SDS011;12046;44.702;10.622;2023-02-19T07:20:34;27.13;;;19.60;;
23730;SDS011;12046;44.702;10.622;2023-02-19T07:23:03;25.80;;;19.45;;
23730;SDS011;12046;44.702;10.622;2023-02-19T07:25:28;25.65;;;18.98;;
23730;SDS011;12046;44.702;10.622;2023-02-19T07:27:55;26.52;;;20.58;;
23730;SDS011;12046;44.702;10.622;2023-02-19T07:30:24;25.92;;;19.83;;
23730;SDS011;12046;44.702;10.622;2023-02-19T07:32:52;27.77;;;20.52;;
23730;SDS011;12046;44.702;10.622;2023-02-19T07:35:21;26.60;;;20.60;;
23730;SDS011;12046;44.702;10.622;2023-02-19T07:37:47;26.27;;;20.42;;
23730;SDS011;12046;44.702;10.622;2023-02-19T07:40:12;25.42;;;19.92;;
23730;SDS011;12046;44.702;10.622;2023-02-19T07:42:38;27.45;;;21.15;;
23730;SDS011;12046;44.702;10.622;2023-02-19T07:45:04;24.33;;;19.42;;
23730;SDS011;12046;44.702;10.622;2023-02-19T07:47:33;23.42;;;19.00;;
23730;SDS011;12046;44.702;10.622;2023-02-19T07:49:59;22.45;;;19.50;;
23730;SDS011;12046;44.702;10.622;2023-02-19T07:52:24;24.02;;;20.75;;
23730;SDS011;12046;44.702;10.622;2023-02-19T07:54:51;22.73;;;18.80;;
23730;SDS011;12046;44.702;10.622;2023-02-19T07:57:16;28.27;;;21.38;;
23730;SDS011;12046;44.702;10.622;2023-02-19T07:59:42;24.20;;;20.73;;
23730;SDS011;12046;44.702;10.622;2023-02-19T08:02:14;23.23;;;19.90;;
23730;SDS011;12046;44.702;10.622;2023-02-19T08:05:03;24.42;;;19.48;;
23730;SDS011;12046;44.702;10.622;2023-02-19T08:07:34;24.55;;;19.10;;
23730;SDS011;12046;44.702;10.622;2023-02-19T08:10:01;23.42;;;20.02;;
23730;SDS011;12046;44.702;10.622;2023-02-19T08:12:59;21.52;;;18.27;;
23730;SDS011;12046;44.702;10.622;2023-02-19T08:15:52;25.20;;;19.23;;
23730;SDS011;12046;44.702;10.622;2023-02-19T08:18:21;24.55;;;18.83;;
23730;SDS011;12046;44.702;10.622;2023-02-19T08:20:51;25.33;;;20.08;;
23730;SDS011;12046;44.702;10.622;2023-02-19T08:23:21;24.73;;;20.45;;
23730;SDS011;12046;44.702;10.622;2023-02-19T08:25:50;24.67;;;19.90;;
23730;SDS011;12046;44.702;10.622;2023-02-19T08:28:17;24.70;;;21.27;;
23730;SDS011;12046;44.702;10.622;2023-02-19T08:30:44;24.50;;;20.67;;
23730;SDS011;12046;44.702;10.622;2023-02-19T08:33:11;32.20;;;22.17;;
23730;SDS011;12046;44.702;10.622;2023-02-19T08:35:39;22.67;;;19.80;;
23730;SDS011;12046;44.702;10.622;2023-02-19T08:38:07;22.25;;;19.83;;
23730;SDS011;12046;44.702;10.622;2023-02-19T08:40:40;24.98;;;22.27;;
23730;SDS011;12046;44.702;10.622;2023-02-19T08:43:16;25.80;;;20.58;;
23730;SDS011;12046;44.702;10.622;2023-02-19T08:45:43;26.25;;;21.85;;
23730;SDS011;12046;44.702;10.622;2023-02-19T08:48:14;22.85;;;19.08;;
23730;SDS011;12046;44.702;10.622;2023-02-19T08:50:39;22.63;;;19.30;;
23730;SDS011;12046;44.702;10.622;2023-02-19T08:53:05;24.27;;;20.15;;
23730;SDS011;12046;44.702;10.622;2023-02-19T08:55:31;20.92;;;17.58;;
23730;SDS011;12046;44.702;10.622;2023-02-19T08:57:58;21.20;;;18.55;;
23730;SDS011;12046;44.702;10.622;2023-02-19T09:00:23;18.77;;;16.77;;
23730;SDS011;12046;44.702;10.622;2023-02-19T09:02:52;19.90;;;17.45;;
23730;SDS011;12046;44.702;10.622;2023-02-19T09:05:21;19.00;;;16.35;;
23730;SDS011;12046;44.702;10.622;2023-02-19T09:07:50;17.88;;;16.08;;
23730;SDS011;12046;44.702;10.622;2023-02-19T09:10:16;19.90;;;16.50;;
23730;SDS011;12046;44.702;10.622;2023-02-19T09:12:42;20.42;;;18.42;;
23730;SDS011;12046;44.702;10.622;2023-02-19T09:15:08;16.42;;;13.85;;
23730;SDS011;12046;44.702;10.622;2023-02-19T09:17:34;14.63;;;13.13;;
23730;SDS011;12046;44.702;10.622;2023-02-19T09:20:00;15.60;;;12.70;;
23730;SDS011;12046;44.702;10.622;2023-02-19T09:22:26;16.35;;;13.75;;
23730;SDS011;12046;44.702;10.622;2023-02-19T09:24:51;15.35;;;11.73;;
23730;SDS011;12046;44.702;10.622;2023-02-19T09:27:23;14.25;;;12.35;;
23730;SDS011;12046;44.702;10.622;2023-02-19T09:29:49;14.25;;;12.70;;
23730;SDS011;12046;44.702;10.622;2023-02-19T09:32:15;13.70;;;12.30;;
23730;SDS011;12046;44.702;10.622;2023-02-19T09:34:45;13.45;;;11.35;;
23730;SDS011;12046;44.702;10.622;2023-02-19T09:37:13;13.85;;;10.52;;
23730;SDS011;12046;44.702;10.622;2023-02-19T09:39:39;12.23;;;11.00;;
23730;SDS011;12046;44.702;10.622;2023-02-19T09:44:49;12.07;;;10.88;;
23730;SDS011;12046;44.702;10.622;2023-02-19T09:47:23;9.77;;;8.77;;
23730;SDS011;12046;44.702;10.622;2023-02-19T09:49:58;9.38;;;8.38;;
23730;SDS011;12046;44.702;10.622;2023-02-19T09:52:39;10.25;;;9.25;;
23730;SDS011;12046;44.702;10.622;2023-02-19T09:55:14;10.20;;;9.25;;
23730;SDS011;12046;44.702;10.622;2023-02-19T09:58:05;8.80;;;7.25;;
23730;SDS011;12046;44.702;10.622;2023-02-19T10:00:42;6.43;;;5.78;;
23730;SDS011;12046;44.702;10.622;2023-02-19T10:03:13;6.60;;;5.95;;
23730;SDS011;12046;44.702;10.622;2023-02-19T10:05:57;7.13;;;6.43;;
23730;SDS011;12046;44.702;10.622;2023-02-19T10:08:29;6.90;;;6.15;;
23730;SDS011;12046;44.702;10.622;2023-02-19T10:11:02;8.18;;;7.32;;
23730;SDS011;12046;44.702;10.622;2023-02-19T10:13:36;10.63;;;9.73;;
23730;SDS011;12046;44.702;10.622;2023-02-19T10:16:11;9.45;;;8.57;;
23730;SDS011;12046;44.702;10.622;2023-02-19T10:18:42;10.07;;;9.07;;
23730;SDS011;12046;44.702;10.622;2023-02-19T10:21:10;10.35;;;9.43;;
23730;SDS011;12046;44.702;10.622;2023-02-19T10:23:41;9.43;;;8.45;;
23730;SDS011;12046;44.702;10.622;2023-02-19T10:26:08;8.43;;;7.60;;
23730;SDS011;12046;44.702;10.622;2023-02-19T10:28:34;9.02;;;8.13;;
23730;SDS011;12046;44.702;10.622;2023-02-19T10:31:01;8.98;;;8.07;;
23730;SDS011;12046;44.702;10.622;2023-02-19T10:33:29;9.88;;;8.88;;
23730;SDS011;12046;44.702;10.622;2023-02-19T10:35:57;9.32;;;8.35;;
23730;SDS011;12046;44.702;10.622;2023-02-19T10:38:26;9.90;;;8.88;;
23730;SDS011;12046;44.702;10.622;2023-02-19T10:40:58;8.77;;;7.60;;
23730;SDS011;12046;44.702;10.622;2023-02-19T10:43:31;10.82;;;7.60;;
23730;SDS011;12046;44.702;10.622;2023-02-19T10:46:13;8.10;;;7.10;;
23730;SDS011;12046;44.702;10.622;2023-02-19T10:48:55;9.52;;;7.35;;
23730;SDS011;12046;44.702;10.622;2023-02-19T10:51:28;8.45;;;7.45;;
23730;SDS011;12046;44.702;10.622;2023-02-19T10:54:16;7.72;;;7.03;;
23730;SDS011;12046;44.702;10.622;2023-02-19T10:56:52;8.38;;;7.55;;
23730;SDS011;12046;44.702;10.622;2023-02-19T10:59:24;7.78;;;7.05;;
23730;SDS011;12046;44.702;10.622;2023-02-19T11:01:53;8.60;;;7.70;;
23730;SDS011;12046;44.702;10.622;2023-02-19T11:04:19;9.23;;;7.65;;
23730;SDS011;12046;44.702;10.622;2023-02-19T11:06:45;9.27;;;8.35;;
23730;SDS011;12046;44.702;10.622;2023-02-19T11:09:24;12.13;;;9.25;;
23730;SDS011;12046;44.702;10.622;2023-02-19T11:11:53;10.35;;;9.25;;
23730;SDS011;12046;44.702;10.622;2023-02-19T11:14:21;12.25;;;9.95;;
23730;SDS011;12046;44.702;10.622;2023-02-19T11:16:50;9.60;;;8.40;;
23730;SDS011;12046;44.702;10.622;2023-02-19T11:21:58;10.40;;;9.40;;
23730;SDS011;12046;44.702;10.622;2023-02-19T11:26:51;12.05;;;10.75;;
23730;SDS011;12046;44.702;10.622;2023-02-19T11:29:19;9.93;;;8.90;;
23730;SDS011;12046;44.702;10.622;2023-02-19T11:31:47;11.60;;;10.27;;
23730;SDS011;12046;44.702;10.622;2023-02-19T11:36:39;10.73;;;9.52;;
23730;SDS011;12046;44.702;10.622;2023-02-19T11:53:27;12.93;;;10.60;;
23730;SDS011;12046;44.702;10.622;2023-02-19T12:24:41;12.63;;;11.32;;
23730;SDS011;12046;44.702;10.622;2023-02-19T12:26:46;13.05;;;11.52;;
23730;SDS011;12046;44.702;10.622;2023-02-19T12:43:29;12.35;;;10.77;;
23730;SDS011;12046;44.702;10.622;2023-02-19T12:45:59;11.52;;;10.38;;
23730;SDS011;12046;44.702;10.622;2023-02-19T12:53:51;10.32;;;9.32;;
23730;SDS011;12046;44.702;10.622;2023-02-19T12:58:52;11.75;;;9.48;;
23730;SDS011;12046;44.702;10.622;2023-02-19T13:01:25;9.65;;;8.65;;
23730;SDS011;12046;44.702;10.622;2023-02-19T13:06:42;9.00;;;8.07;;
23730;SDS011;12046;44.702;10.622;2023-02-19T13:09:14;10.35;;;9.35;;
23730;SDS011;12046;44.702;10.622;2023-02-19T13:14:56;12.13;;;10.93;;
23730;SDS011;12046;44.702;10.622;2023-02-19T13:17:47;9.00;;;8.10;;
23730;SDS011;12046;44.702;10.622;2023-02-19T13:20:34;11.35;;;10.25;;
23730;SDS011;12046;44.702;10.622;2023-02-19T13:36:40;11.93;;;10.73;;
23730;SDS011;12046;44.702;10.622;2023-02-19T13:39:06;11.00;;;9.82;;
23730;SDS011;12046;44.702;10.622;2023-02-19T13:41:39;10.35;;;9.43;;
23730;SDS011;12046;44.702;10.622;2023-02-19T13:44:16;11.43;;;9.27;;
23730;SDS011;12046;44.702;10.622;2023-02-19T13:46:45;9.95;;;8.93;;
23730;SDS011;12046;44.702;10.622;2023-02-19T13:54:33;9.65;;;8.60;;
23730;SDS011;12046;44.702;10.622;2023-02-19T13:59:48;10.57;;;9.50;;
23730;SDS011;12046;44.702;10.622;2023-02-19T14:02:23;9.88;;;9.05;;
23730;SDS011;12046;44.702;10.622;2023-02-19T14:07:21;11.23;;;9.18;;
23730;SDS011;12046;44.702;10.622;2023-02-19T14:09:47;9.85;;;8.85;;
23730;SDS011;12046;44.702;10.622;2023-02-19T14:27:52;11.27;;;10.13;;
23730;SDS011;12046;44.702;10.622;2023-02-19T14:30:21;11.20;;;10.10;;
23730;SDS011;12046;44.702;10.622;2023-02-19T14:32:48;11.70;;;10.52;;
23730;SDS011;12046;44.702;10.622;2023-02-19T14:35:18;10.07;;;9.07;;
23730;SDS011;12046;44.702;10.622;2023-02-19T14:37:46;10.75;;;9.65;;
23730;SDS011;12046;44.702;10.622;2023-02-19T14:40:21;9.73;;;8.73;;
23730;SDS011;12046;44.702;10.622;2023-02-19T14:42:52;11.55;;;10.55;;
23730;SDS011;12046;44.702;10.622;2023-02-19T14:45:21;10.77;;;9.75;;
23730;SDS011;12046;44.702;10.622;2023-02-19T14:47:48;11.07;;;9.98;;
23730;SDS011;12046;44.702;10.622;2023-02-19T14:50:24;11.20;;;10.10;;
23730;SDS011;12046;44.702;10.622;2023-02-19T14:52:54;11.18;;;10.02;;
23730;SDS011;12046;44.702;10.622;2023-02-19T14:55:28;11.27;;;9.85;;
23730;SDS011;12046;44.702;10.622;2023-02-19T14:58:10;10.90;;;9.90;;
23730;SDS011;12046;44.702;10.622;2023-02-19T15:00:40;11.18;;;10.07;;
23730;SDS011;12046;44.702;10.622;2023-02-19T15:03:22;10.30;;;9.35;;
23730;SDS011;12046;44.702;10.622;2023-02-19T15:05:52;10.18;;;9.20;;
23730;SDS011;12046;44.702;10.622;2023-02-19T15:08:21;10.75;;;9.60;;
23730;SDS011;12046;44.702;10.622;2023-02-19T15:11:01;10.20;;;9.40;;
23730;SDS011;12046;44.702;10.622;2023-02-19T15:13:31;10.80;;;9.65;;
23730;SDS011;12046;44.702;10.622;2023-02-19T15:15:57;10.20;;;9.18;;
23730;SDS011;12046;44.702;10.622;2023-02-19T15:18:24;11.27;;;10.20;;
23730;SDS011;12046;44.702;10.622;2023-02-19T15:20:57;10.52;;;9.50;;
23730;SDS011;12046;44.702;10.622;2023-02-19T15:23:25;10.77;;;9.88;;
23730;SDS011;12046;44.702;10.622;2023-02-19T15:25:54;10.45;;;9.52;;
23730;SDS011;12046;44.702;10.622;2023-02-19T15:30:50;10.80;;;9.85;;
23730;SDS011;12046;44.702;10.622;2023-02-19T15:33:30;10.35;;;9.35;;
23730;SDS011;12046;44.702;10.622;2023-02-19T15:36:00;11.27;;;10.27;;
23730;SDS011;12046;44.702;10.622;2023-02-19T15:38:29;10.70;;;9.77;;
23730;SDS011;12046;44.702;10.622;2023-02-19T15:40:55;10.30;;;9.38;;
23730;SDS011;12046;44.702;10.622;2023-02-19T15:45:58;12.48;;;9.63;;
23730;SDS011;12046;44.702;10.622;2023-02-19T15:48:34;22.30;;;10.82;;
23730;SDS011;12046;44.702;10.622;2023-02-19T15:51:08;12.27;;;10.77;;
23730;SDS011;12046;44.702;10.622;2023-02-19T15:53:42;11.18;;;9.60;;
23730;SDS011;12046;44.702;10.622;2023-02-19T15:56:22;10.00;;;9.07;;
23730;SDS011;12046;44.702;10.622;2023-02-19T16:01:26;10.85;;;9.85;;
23730;SDS011;12046;44.702;10.622;2023-02-19T16:03:52;11.15;;;9.35;;
23730;SDS011;12046;44.702;10.622;2023-02-19T16:06:19;10.43;;;9.43;;
23730;SDS011;12046;44.702;10.622;2023-02-19T16:11:45;11.07;;;10.00;;
23730;SDS011;12046;44.702;10.622;2023-02-19T16:19:49;11.85;;;10.07;;
23730;SDS011;12046;44.702;10.622;2023-02-19T16:22:28;11.60;;;9.80;;
23730;SDS011;12046;44.702;10.622;2023-02-19T16:24:58;12.57;;;9.90;;
23730;SDS011;12046;44.702;10.622;2023-02-19T16:27:33;11.90;;;10.60;;
23730;SDS011;12046;44.702;10.622;2023-02-19T16:30:06;12.15;;;10.95;;
23730;SDS011;12046;44.702;10.622;2023-02-19T16:32:33;11.83;;;10.43;;
23730;SDS011;12046;44.702;10.622;2023-02-19T16:34:59;10.98;;;9.63;;
23730;SDS011;12046;44.702;10.622;2023-02-19T16:37:35;11.50;;;10.30;;
23730;SDS011;12046;44.702;10.622;2023-02-19T16:42:33;12.32;;;11.05;;
23730;SDS011;12046;44.702;10.622;2023-02-19T16:45:02;11.60;;;10.48;;
23730;SDS011;12046;44.702;10.622;2023-02-19T16:47:32;10.82;;;9.80;;
23730;SDS011;12046;44.702;10.622;2023-02-19T16:50:01;11.15;;;10.05;;
23730;SDS011;12046;44.702;10.622;2023-02-19T16:52:31;12.25;;;10.93;;
23730;SDS011;12046;44.702;10.622;2023-02-19T16:54:57;14.35;;;11.30;;
23730;SDS011;12046;44.702;10.622;2023-02-19T16:57:23;15.43;;;11.88;;
23730;SDS011;12046;44.702;10.622;2023-02-19T16:59:49;11.93;;;10.82;;
23730;SDS011;12046;44.702;10.622;2023-02-19T17:02:16;14.82;;;12.13;;
23730;SDS011;12046;44.702;10.622;2023-02-19T17:04:44;13.32;;;11.38;;
23730;SDS011;12046;44.702;10.622;2023-02-19T17:07:13;13.02;;;11.70;;
23730;SDS011;12046;44.702;10.622;2023-02-19T17:09:41;12.52;;;11.32;;
23730;SDS011;12046;44.702;10.622;2023-02-19T17:12:10;14.05;;;11.88;;
23730;SDS011;12046;44.702;10.622;2023-02-19T17:14:37;13.70;;;11.93;;
23730;SDS011;12046;44.702;10.622;2023-02-19T17:17:03;13.02;;;11.63;;
23730;SDS011;12046;44.702;10.622;2023-02-19T17:19:29;16.02;;;12.98;;
23730;SDS011;12046;44.702;10.622;2023-02-19T17:21:55;17.17;;;12.20;;
23730;SDS011;12046;44.702;10.622;2023-02-19T17:24:21;13.45;;;12.07;;
23730;SDS011;12046;44.702;10.622;2023-02-19T17:26:48;14.90;;;13.40;;
23730;SDS011;12046;44.702;10.622;2023-02-19T17:29:14;16.25;;;13.00;;
23730;SDS011;12046;44.702;10.622;2023-02-19T17:31:42;15.60;;;13.93;;